Time;durP1;ratioP1;P1;durP2;ratioP2;P2;SDS_P1;SDS_P2;PMS_P1;PMS_P2;Temp;Humidity;BMP_temperature;BMP_pressure;BME280_temperature;BME280_humidity;BME280_pressure;Samples;Min_cycle;Max_cycle;Signal;HPM_P1;HPM_P2
2021/12/12 00:02:09;;;;;;;13.50;11.70;;;;;;;1.54;100.00;97076.06;5028202;28;104997;-63
2021/12/12 00:04:44;;;;;;;14.60;12.17;;;;;;;1.29;100.00;97072.84;5027601;28;107178;-63
2021/12/12 00:07:20;;;;;;;14.93;12.57;;;;;;;1.21;100.00;97088.59;5029977;28;101698;-63
2021/12/12 00:09:50;;;;;;;15.60;12.43;;;;;;;1.19;100.00;97087.97;5032771;27;102466;-63
2021/12/12 00:12:24;;;;;;;13.40;11.87;;;;;;;1.09;100.00;97083.97;5029608;27;101781;-63
2021/12/12 00:14:52;;;;;;;14.20;11.57;;;;;;;1.04;100.00;97086.31;5028929;27;102402;-63
2021/12/12 00:17:20;;;;;;;13.47;10.90;;;;;;;0.83;100.00;97089.53;5029038;28;101911;-63
2021/12/12 00:19:47;;;;;;;14.27;11.43;;;;;;;0.74;100.00;97095.00;5029501;28;101807;-63
2021/12/12 00:22:18;;;;;;;12.33;10.53;;;;;;;0.71;100.00;97092.75;5027752;28;103517;-63
2021/12/12 00:24:45;;;;;;;13.57;11.20;;;;;;;0.71;100.00;97090.13;5029320;28;103265;-63
2021/12/12 00:27:13;;;;;;;13.60;11.07;;;;;;;0.75;100.00;97099.22;5029021;28;101945;-63
2021/12/12 00:29:43;;;;;;;14.70;11.20;;;;;;;0.67;100.00;97101.91;5028221;28;103695;-63
2021/12/12 00:32:14;;;;;;;12.70;10.43;;;;;;;0.49;100.00;97096.09;5032293;28;103818;-63
2021/12/12 00:34:45;;;;;;;14.27;11.20;;;;;;;0.62;100.00;97101.59;5028023;28;105185;-64
2021/12/12 00:37:12;;;;;;;15.40;11.47;;;;;;;0.59;100.00;97094.91;5028988;28;102712;-63
2021/12/12 00:39:45;;;;;;;14.47;11.83;;;;;;;0.61;100.00;97097.38;5029235;27;102286;-63
2021/12/12 00:42:16;;;;;;;17.33;11.23;;;;;;;0.69;100.00;97092.06;5027836;28;104021;-63
2021/12/12 00:44:48;;;;;;;15.23;11.50;;;;;;;0.79;100.00;97092.69;5028741;28;102602;-64
2021/12/12 00:47:17;;;;;;;14.30;10.70;;;;;;;0.92;100.00;97095.53;5029407;27;101947;-64
2021/12/12 00:49:45;;;;;;;12.70;11.30;;;;;;;0.94;100.00;97094.38;5028766;27;102867;-64
2021/12/12 00:52:14;;;;;;;14.33;11.53;;;;;;;0.85;100.00;97089.38;5028594;27;103014;-63
2021/12/12 00:54:42;;;;;;;16.03;12.40;;;;;;;0.91;100.00;97091.28;5033094;28;101996;-64
2021/12/12 00:57:12;;;;;;;14.50;11.43;;;;;;;0.97;100.00;97101.06;5026903;28;104898;-63
2021/12/12 00:59:40;;;;;;;13.83;11.77;;;;;;;0.99;100.00;97096.50;5029333;27;101822;-64
2021/12/12 01:02:14;;;;;;;12.33;10.70;;;;;;;1.02;100.00;97091.72;5027818;28;103509;-64
2021/12/12 01:04:49;;;;;;;14.57;11.47;;;;;;;1.18;100.00;97090.78;5027376;28;105611;-64
2021/12/12 01:07:21;;;;;;;13.83;10.80;;;;;;;1.22;100.00;97092.84;5029402;28;101651;-63
2021/12/12 01:09:51;;;;;;;15.03;11.53;;;;;;;1.14;100.00;97099.97;5029046;28;102954;-64
2021/12/12 01:12:21;;;;;;;12.40;10.80;;;;;;;1.04;100.00;97096.78;5026878;28;104661;-64
2021/12/12 01:14:52;;;;;;;13.03;11.37;;;;;;;0.90;100.00;97108.00;5032467;28;102601;-64
2021/12/12 01:17:23;;;;;;;14.03;11.37;;;;;;;1.07;100.00;97104.28;5028191;28;103197;-63
2021/12/12 01:19:53;;;;;;;14.03;11.07;;;;;;;1.16;100.00;97093.56;5028975;28;101976;-64
2021/12/12 01:22:27;;;;;;;13.67;11.10;;;;;;;1.18;100.00;97109.09;5061140;27;106239;-64
2021/12/12 01:24:56;;;;;;;12.87;10.40;;;;;;;1.20;100.00;97109.75;5026621;27;103729;-64
2021/12/12 01:27:24;;;;;;;11.97;10.73;;;;;;;1.17;100.00;97110.09;5028413;28;101935;-64
2021/12/12 01:29:51;;;;;;;13.77;10.83;;;;;;;1.11;100.00;97108.19;5032173;28;102532;-64
2021/12/12 01:32:26;;;;;;;12.30;10.17;;;;;;;1.24;100.00;97113.63;5031402;28;102561;-63
2021/12/12 01:34:54;;;;;;;11.17;10.00;;;;;;;1.27;100.00;97121.16;5031959;28;101655;-63
2021/12/12 01:37:37;;;;;;;11.87;9.97;;;;;;;1.37;100.00;97112.06;5034812;27;102327;-63
2021/12/12 01:40:12;;;;;;;12.07;10.17;;;;;;;1.24;100.00;97111.84;5031906;27;102086;-64
2021/12/12 01:42:42;;;;;;;11.03;9.83;;;;;;;1.19;100.00;97113.34;5031959;28;102336;-64
2021/12/12 01:45:16;;;;;;;10.93;9.57;;;;;;;1.11;100.00;97122.06;5032101;28;103978;-64
2021/12/12 01:47:48;;;;;;;11.73;10.03;;;;;;;1.20;100.00;97122.88;5032989;27;101646;-64
2021/12/12 01:50:19;;;;;;;13.13;10.47;;;;;;;1.24;100.00;97132.81;5032014;27;102770;-63
2021/12/12 01:52:47;;;;;;;13.67;10.40;;;;;;;1.27;100.00;97129.03;5031477;28;102853;-64
2021/12/12 01:55:23;;;;;;;14.67;10.80;;;;;;;1.30;100.00;97131.28;5030361;28;101869;-64
2021/12/12 01:57:51;;;;;;;18.53;12.37;;;;;;;1.36;100.00;97136.66;5031773;28;102983;-63
2021/12/12 02:00:23;;;;;;;16.33;11.03;;;;;;;1.43;100.00;97131.53;5032959;28;104907;-63
2021/12/12 02:02:52;;;;;;;15.07;11.00;;;;;;;1.42;100.00;97129.91;5031986;28;102168;-64
2021/12/12 02:05:21;;;;;;;12.17;9.80;;;;;;;1.49;100.00;97131.63;5029849;28;105113;-64
2021/12/12 02:07:56;;;;;;;13.70;10.00;;;;;;;1.52;100.00;97130.44;5032547;27;102041;-64
2021/12/12 02:10:28;;;;;;;13.17;9.93;;;;;;;1.46;100.00;97132.00;5031578;28;102276;-63
2021/12/12 02:12:57;;;;;;;11.87;9.73;;;;;;;1.49;100.00;97131.63;5032073;27;103131;-64
2021/12/12 02:15:24;;;;;;;11.13;9.63;;;;;;;1.41;100.00;97139.56;5032302;27;101951;-63
2021/12/12 02:17:54;;;;;;;11.00;9.50;;;;;;;1.41;100.00;97143.97;5031133;28;105089;-64
2021/12/12 02:20:31;;;;;;;12.10;9.53;;;;;;;1.40;100.00;97137.09;5031586;27;102834;-64
2021/12/12 02:23:08;;;;;;;11.13;8.73;;;;;;;1.44;100.00;97143.63;5035850;28;101715;-64
2021/12/12 02:36:56;;;;;;;8.80;7.90;;;;;;;1.56;100.00;97143.06;5031528;27;101631;-63
2021/12/12 02:39:25;;;;;;;9.03;8.13;;;;;;;1.57;100.00;97142.06;5030509;28;103838;-63
2021/12/12 02:41:57;;;;;;;10.13;8.73;;;;;;;1.54;100.00;97133.72;5030924;28;103051;-64
2021/12/12 02:44:32;;;;;;;8.47;7.67;;;;;;;1.51;100.00;97136.69;5032172;28;102020;-63
2021/12/12 02:47:08;;;;;;;8.17;7.37;;;;;;;1.41;100.00;97142.19;5034985;28;102296;-63
2021/12/12 02:49:40;;;;;;;8.67;7.27;;;;;;;1.44;100.00;97139.22;5031925;28;101677;-64
2021/12/12 02:52:11;;;;;;;8.73;7.67;;;;;;;1.42;100.00;97137.75;5032055;28;102364;-63
2021/12/12 02:54:41;;;;;;;9.37;7.70;;;;;;;1.42;100.00;97137.75;5029846;28;105652;-63
2021/12/12 02:57:09;;;;;;;8.97;8.00;;;;;;;1.29;100.00;97150.63;5031577;28;101666;-63
2021/12/12 02:59:39;;;;;;;8.80;7.90;;;;;;;1.33;100.00;97151.91;5031376;27;102926;-64
2021/12/12 03:02:11;;;;;;;10.30;8.40;;;;;;;1.28;100.00;97162.09;5030943;28;103097;-64
2021/12/12 03:04:39;;;;;;;10.30;8.47;;;;;;;1.28;100.00;97173.41;5031823;28;101631;-63
2021/12/12 03:07:09;;;;;;;9.70;8.53;;;;;;;1.20;100.00;97170.81;5030103;28;103708;-63
2021/12/12 03:09:43;;;;;;;10.03;8.30;;;;;;;1.20;100.00;97170.81;5032777;28;105435;-63
2021/12/12 03:12:13;;;;;;;10.50;8.83;;;;;;;1.20;100.00;97170.00;5030147;28;105259;-63
2021/12/12 03:14:42;;;;;;;8.97;8.03;;;;;;;1.19;100.00;97166.56;5029794;28;105342;-63
2021/12/12 03:17:12;;;;;;;8.70;7.80;;;;;;;1.27;100.00;97163.09;5031485;27;101811;-63
2021/12/12 03:19:40;;;;;;;8.90;7.80;;;;;;;1.27;100.00;97163.09;5031502;27;102344;-64
2021/12/12 03:22:09;;;;;;;10.03;7.83;;;;;;;1.35;100.00;97165.63;5030686;27;103072;-64
2021/12/12 03:24:37;;;;;;;9.03;8.00;;;;;;;1.25;100.00;97168.50;5031332;28;101637;-64
2021/12/12 03:27:08;;;;;;;8.63;7.73;;;;;;;1.28;100.00;97169.94;5030583;27;102575;-63
2021/12/12 03:29:36;;;;;;;9.23;8.03;;;;;;;1.31;100.00;97180.09;5032731;28;103891;-63
2021/12/12 03:32:07;;;;;;;10.23;8.40;;;;;;;1.33;100.00;97178.09;5029908;28;105106;-63
2021/12/12 03:34:37;;;;;;;9.13;8.13;;;;;;;1.32;100.00;97176.47;5028966;28;104030;-63
2021/12/12 03:37:07;;;;;;;10.80;8.87;;;;;;;1.30;100.00;97175.81;5013125;28;101991;-63
2021/12/12 03:39:40;;;;;;;10.57;9.20;;;;;;;1.34;100.00;97184.97;5029814;28;104461;-63
2021/12/12 03:42:13;;;;;;;9.10;8.20;;;;;;;1.35;100.00;97189.22;5028901;28;105345;-63
2021/12/12 03:44:41;;;;;;;8.90;7.93;;;;;;;1.38;100.00;97183.63;5031217;27;101724;-64
2021/12/12 03:47:12;;;;;;;10.10;7.97;;;;;;;1.42;100.00;97187.56;5030714;28;102672;-64
2021/12/12 03:49:39;;;;;;;8.77;7.87;;;;;;;1.41;100.00;97184.09;5029481;27;102631;-64
2021/12/12 03:52:10;;;;;;;9.10;7.23;;;;;;;1.33;100.00;97185.97;5032899;28;101926;-64
2021/12/12 03:54:38;;;;;;;9.13;7.93;;;;;;;1.35;100.00;97179.56;5030003;27;102845;-63
2021/12/12 03:57:08;;;;;;;9.73;8.60;;;;;;;1.33;100.00;97175.47;5030765;28;101661;-63
2021/12/12 03:59:36;;;;;;;9.40;8.40;;;;;;;1.34;100.00;97177.09;5029212;28;105778;-63
2021/12/12 04:02:05;;;;;;;10.43;8.73;;;;;;;1.31;100.00;97177.47;5029936;28;102721;-63
2021/12/12 04:04:35;;;;;;;10.40;8.27;;;;;;;1.28;100.00;97186.50;5030711;28;101787;-64
2021/12/12 04:07:05;;;;;;;10.97;9.17;;;;;;;1.32;100.00;97181.72;5030765;28;102365;-63
2021/12/12 04:09:32;;;;;;;10.20;9.13;;;;;;;1.30;100.00;97183.69;5030134;27;102737;-63
2021/12/12 04:12:04;;;;;;;11.30;8.77;;;;;;;1.36;100.00;97193.47;5030348;27;101798;-63
2021/12/12 04:14:32;;;;;;;10.53;9.13;;;;;;;1.30;100.00;97194.97;5033575;28;102379;-63
2021/12/12 04:17:02;;;;;;;13.17;9.60;;;;;;;1.31;100.00;97187.94;5030586;27;101818;-63
2021/12/12 04:19:30;;;;;;;10.43;8.97;;;;;;;1.29;100.00;97187.28;5030393;28;102451;-63
2021/12/12 04:21:57;;;;;;;11.70;9.60;;;;;;;1.31;100.00;97195.81;5028264;28;105392;-63
2021/12/12 04:24:28;;;;;;;11.40;9.47;;;;;;;1.32;100.00;97197.44;5030301;28;101797;-64
2021/12/12 04:26:56;;;;;;;11.87;9.13;;;;;;;1.36;100.00;97198.69;5028757;28;105179;-63
2021/12/12 04:29:25;;;;;;;10.83;9.47;;;;;;;1.35;100.00;97205.75;5029924;28;102690;-63
2021/12/12 04:31:57;;;;;;;10.23;9.03;;;;;;;1.41;100.00;97207.69;5030340;28;102032;-63
2021/12/12 04:34:26;;;;;;;10.17;9.00;;;;;;;1.32;100.00;97211.34;5028740;28;103591;-63
2021/12/12 04:36:55;;;;;;;11.53;9.40;;;;;;;1.33;100.00;97214.78;5032917;28;102620;-63
2021/12/12 04:39:25;;;;;;;10.43;9.20;;;;;;;1.39;100.00;97219.34;5028833;28;104843;-64
2021/12/12 04:41:54;;;;;;;10.83;9.30;;;;;;;1.35;100.00;97223.28;5027918;28;105520;-63
2021/12/12 04:44:23;;;;;;;11.17;9.10;;;;;;;1.42;100.00;97224.25;5028832;28;101872;-63
2021/12/12 04:49:56;;;;;;;10.70;8.53;;;;;;;1.47;100.00;97229.75;5029576;27;102941;-63
2021/12/12 04:52:29;;;;;;;9.80;8.63;;;;;;;1.54;100.00;97241.19;5028824;28;101795;-63
2021/12/12 04:55:05;;;;;;;9.80;8.13;;;;;;;1.48;100.00;97244.50;5028647;28;103799;-63
2021/12/12 04:57:37;;;;;;;9.27;8.27;;;;;;;1.44;100.00;97253.69;5027992;28;105108;-64
2021/12/12 05:00:09;;;;;;;11.80;8.90;;;;;;;1.37;100.00;97242.28;5032596;27;101945;-63
2021/12/12 05:02:45;;;;;;;11.03;8.93;;;;;;;1.40;100.00;97244.53;5031456;28;105073;-63
2021/12/12 05:05:18;;;;;;;10.40;8.80;;;;;;;1.45;100.00;97252.69;5032059;28;101791;-63
2021/12/12 05:07:50;;;;;;;10.23;8.80;;;;;;;1.49;100.00;97252.16;5032164;28;105019;-63
2021/12/12 05:10:22;;;;;;;9.60;8.40;;;;;;;1.50;100.00;97253.84;5031339;28;105793;-63
2021/12/12 05:12:55;;;;;;;10.67;9.00;;;;;;;1.52;100.00;97262.31;5066057;27;101857;-64
2021/12/12 05:15:29;;;;;;;11.53;9.43;;;;;;;1.53;100.00;97253.47;5033559;28;102423;-63
2021/12/12 05:18:03;;;;;;;10.07;8.73;;;;;;;1.54;100.00;97262.16;5031336;28;105355;-63
2021/12/12 05:20:34;;;;;;;10.30;8.47;;;;;;;1.56;100.00;97261.00;5031905;28;101737;-63
2021/12/12 05:23:05;;;;;;;10.47;8.70;;;;;;;1.56;100.00;97260.16;5035932;28;102568;-63
2021/12/12 05:25:39;;;;;;;12.87;9.40;;;;;;;1.62;100.00;97267.34;5031813;28;101894;-63
2021/12/12 05:28:07;;;;;;;11.77;9.30;;;;;;;1.56;100.00;97265.41;5033008;28;102296;-63
2021/12/12 05:30:36;;;;;;;11.27;9.93;;;;;;;1.52;100.00;97275.44;5031196;28;105758;-63
2021/12/12 05:33:06;;;;;;;10.70;9.53;;;;;;;1.48;100.00;97273.34;5031709;28;101840;-63
2021/12/12 05:35:39;;;;;;;12.13;9.30;;;;;;;1.51;100.00;97278.22;5031311;28;106153;-63
2021/12/12 05:38:07;;;;;;;10.50;9.40;;;;;;;1.53;100.00;97277.06;5030985;28;106390;-63
2021/12/12 05:40:37;;;;;;;10.50;9.40;;;;;;;1.64;100.00;97284.53;5031314;28;101858;-63
2021/12/12 05:43:05;;;;;;;9.63;8.63;;;;;;;1.60;100.00;97275.38;5034225;28;103719;-63
2021/12/12 05:45:34;;;;;;;12.57;10.27;;;;;;;1.60;100.00;97283.22;5031605;28;101949;-63
2021/12/12 05:48:02;;;;;;;11.33;9.50;;;;;;;1.60;100.00;97285.06;5030274;28;105314;-63
2021/12/12 05:50:31;;;;;;;10.27;9.27;;;;;;;1.63;100.00;97284.69;5030765;28;104038;-63
2021/12/12 05:52:58;;;;;;;10.00;9.00;;;;;;;1.65;100.00;97288.78;5031105;28;101948;-63
2021/12/12 05:55:29;;;;;;;10.97;9.57;;;;;;;1.58;100.00;97284.44;5031415;28;105029;-63
2021/12/12 05:57:57;;;;;;;11.07;8.20;;;;;;;1.63;100.00;97284.69;5030637;28;105587;-64
2021/12/12 06:00:29;;;;;;;11.50;9.53;;;;;;;1.59;100.00;97288.66;5031096;28;101963;-63
2021/12/12 06:02:58;;;;;;;11.97;9.43;;;;;;;1.57;100.00;97293.25;5031200;28;103621;-64
2021/12/12 06:05:25;;;;;;;10.30;9.27;;;;;;;1.59;100.00;97291.28;5035551;28;103078;-63
2021/12/12 06:07:57;;;;;;;10.80;9.33;;;;;;;1.59;100.00;97288.66;5030835;28;104924;-63
2021/12/12 06:10:26;;;;;;;10.97;9.63;;;;;;;1.63;100.00;97301.25;5030552;28;104058;-63
2021/12/12 06:12:55;;;;;;;10.07;9.03;;;;;;;1.60;100.00;97291.09;5030235;27;101898;-63
2021/12/12 06:15:27;;;;;;;11.80;9.40;;;;;;;1.63;100.00;97297.78;5030779;28;105605;-64
2021/12/12 06:17:54;;;;;;;10.40;9.30;;;;;;;1.57;100.00;97296.69;5064330;27;104965;-63
2021/12/12 06:20:22;;;;;;;11.67;9.70;;;;;;;1.59;100.00;97292.09;5030929;28;101977;-64
2021/12/12 06:22:51;;;;;;;10.87;9.67;;;;;;;1.54;100.00;97291.00;5030564;28;104816;-63
2021/12/12 06:25:20;;;;;;;11.53;9.47;;;;;;;1.57;100.00;97291.47;5030303;28;105270;-63
2021/12/12 06:27:47;;;;;;;10.67;9.57;;;;;;;1.54;100.00;97297.03;5033718;28;101970;-63
2021/12/12 06:30:18;;;;;;;10.63;9.53;;;;;;;1.63;100.00;97300.41;5030211;28;105392;-63
2021/12/12 06:32:49;;;;;;;10.87;9.67;;;;;;;1.57;100.00;97308.97;5030724;28;102255;-64
2021/12/12 06:35:17;;;;;;;11.13;9.73;;;;;;;1.62;100.00;97314.53;5030691;28;104171;-63
2021/12/12 06:37:46;;;;;;;9.90;8.77;;;;;;;1.69;100.00;97305.00;5029924;28;105480;-63
2021/12/12 06:40:19;;;;;;;11.23;9.57;;;;;;;1.54;100.00;97306.72;5030587;28;101855;-64
2021/12/12 06:42:49;;;;;;;10.47;9.37;;;;;;;1.57;100.00;97311.59;5030668;28;105262;-63
2021/12/12 06:45:19;;;;;;;10.27;8.47;;;;;;;1.63;100.00;97306.50;5029926;28;105320;-63
2021/12/12 06:47:47;;;;;;;10.57;9.47;;;;;;;1.63;100.00;97313.53;5030456;28;101843;-63
2021/12/12 06:50:14;;;;;;;11.73;9.43;;;;;;;1.64;100.00;97310.75;5033318;28;105109;-64
2021/12/12 06:52:41;;;;;;;11.33;9.47;;;;;;;1.64;100.00;97317.81;5030398;28;101895;-64
2021/12/12 06:55:13;;;;;;;11.30;9.27;;;;;;;1.68;100.00;97316.44;5030165;28;105256;-64
2021/12/12 06:57:42;;;;;;;10.90;9.80;;;;;;;1.75;100.00;97320.84;5029711;28;104347;-63
2021/12/12 07:00:15;;;;;;;11.53;9.90;;;;;;;1.75;100.00;97320.84;5030204;28;102134;-63
2021/12/12 07:02:44;;;;;;;12.13;10.53;;;;;;;1.64;100.00;97323.06;5030272;28;104817;-63
2021/12/12 07:05:15;;;;;;;12.60;10.80;;;;;;;1.74;100.00;97321.00;5030001;28;103486;-63
2021/12/12 07:07:42;;;;;;;11.27;10.07;;;;;;;1.76;100.00;97319.03;5030590;28;101716;-63
2021/12/12 07:10:11;;;;;;;12.57;11.17;;;;;;;1.72;100.00;97321.19;5030644;28;102001;-63
2021/12/12 07:12:40;;;;;;;15.10;11.43;;;;;;;1.81;100.00;97327.22;5066060;27;105710;-63
2021/12/12 07:15:11;;;;;;;11.73;10.50;;;;;;;1.83;100.00;97333.09;5028835;28;105134;-64
2021/12/12 07:17:39;;;;;;;16.17;13.90;;;;;;;1.77;100.00;97334.59;5028392;28;104983;-63
2021/12/12 07:20:09;;;;;;;13.63;11.90;;;;;;;1.82;100.00;97336.69;5028877;28;101792;-64
2021/12/12 07:22:37;;;;;;;13.87;11.93;;;;;;;1.85;100.00;97331.09;5028970;28;104992;-64
2021/12/12 07:25:06;;;;;;;14.23;12.00;;;;;;;1.90;100.00;97334.03;5028341;28;105611;-64
2021/12/12 07:27:33;;;;;;;14.83;12.27;;;;;;;1.91;100.00;97346.97;5028374;28;102082;-63
2021/12/12 07:30:01;;;;;;;15.87;13.27;;;;;;;1.86;100.00;97348.50;5028828;28;104047;-63
2021/12/12 07:32:30;;;;;;;16.67;13.80;;;;;;;1.92;100.00;97350.41;5028012;28;105514;-63
2021/12/12 07:34:58;;;;;;;16.43;13.93;;;;;;;1.84;100.00;97347.81;5032333;28;101868;-63
2021/12/12 07:37:25;;;;;;;16.73;14.03;;;;;;;1.80;100.00;97349.97;5028120;28;105306;-63
2021/12/12 07:39:53;;;;;;;16.53;14.13;;;;;;;1.78;100.00;97351.97;5028337;28;101834;-63
2021/12/12 07:42:21;;;;;;;16.33;13.30;;;;;;;1.93;100.00;97354.66;5028403;28;105139;-63
2021/12/12 07:44:49;;;;;;;16.57;13.47;;;;;;;1.97;100.00;97351.50;5027919;28;105295;-63
2021/12/12 07:47:18;;;;;;;16.83;14.03;;;;;;;2.00;100.00;97351.19;5029982;28;101940;-63
2021/12/12 07:49:49;;;;;;;16.53;14.50;;;;;;;1.95;100.00;97357.91;5028500;28;104969;-63
2021/12/12 07:52:20;;;;;;;17.97;14.73;;;;;;;1.87;100.00;97355.34;5027642;28;105073;-63
2021/12/12 07:54:49;;;;;;;17.77;14.00;;;;;;;1.85;100.00;97365.19;5031965;28;101841;-63
2021/12/12 07:57:18;;;;;;;16.23;14.07;;;;;;;1.89;100.00;97369.09;5027848;28;105220;-63
2021/12/12 07:59:46;;;;;;;18.50;14.40;;;;;;;1.83;100.00;97370.63;5028200;28;101878;-63
2021/12/12 08:02:15;;;;;;;17.00;14.17;;;;;;;1.93;100.00;97371.22;5028083;28;105087;-63
2021/12/12 08:04:43;;;;;;;17.60;14.17;;;;;;;2.03;100.00;97377.03;5027612;28;105385;-63
2021/12/12 08:07:13;;;;;;;17.07;14.00;;;;;;;2.03;100.00;97371.81;5028174;28;102265;-63
2021/12/12 08:09:42;;;;;;;16.27;13.90;;;;;;;1.94;100.00;97379.91;5028399;28;105222;-64
2021/12/12 08:12:10;;;;;;;16.50;14.10;;;;;;;2.16;100.00;97381.72;5027335;28;105481;-63
2021/12/12 08:14:38;;;;;;;15.43;13.50;;;;;;;2.23;100.00;97382.66;5029355;27;101727;-62
2021/12/12 08:17:06;;;;;;;17.90;14.83;;;;;;;2.26;100.00;97388.41;5030940;28;104979;-65
2021/12/12 08:19:33;;;;;;;18.30;16.13;;;;;;;2.25;100.00;97383.31;5028163;28;102924;-65
2021/12/12 08:22:06;;;;;;;18.50;14.67;;;;;;;2.35;100.00;97392.59;5028105;28;105248;-64
2021/12/12 08:24:37;;;;;;;18.63;14.73;;;;;;;2.32;100.00;97392.13;5026908;28;106372;-65
2021/12/12 08:27:06;;;;;;;16.30;13.83;;;;;;;2.24;100.00;97394.81;5027210;28;101883;-64
2021/12/12 08:29:34;;;;;;;15.30;12.90;;;;;;;2.21;100.00;97385.47;5027856;28;105412;-65
2021/12/12 08:32:04;;;;;;;19.67;13.93;;;;;;;2.32;100.00;97384.25;5027506;28;105326;-65
2021/12/12 08:34:32;;;;;;;18.20;14.47;;;;;;;2.27;100.00;97383.94;5027531;28;102049;-65
2021/12/12 08:37:00;;;;;;;19.37;13.50;;;;;;;2.12;100.00;97383.88;5027362;28;106515;-64
2021/12/12 08:39:28;;;;;;;16.93;14.67;;;;;;;2.32;100.00;97387.69;5030889;28;105802;-64
2021/12/12 08:41:59;;;;;;;19.03;14.40;;;;;;;2.46;100.00;97380.88;5027498;28;105299;-64
2021/12/12 08:44:28;;;;;;;16.67;13.93;;;;;;;2.43;100.00;97383.84;5027232;28;105094;-64
2021/12/12 08:47:00;;;;;;;16.80;14.63;;;;;;;2.73;100.00;97377.69;5027655;28;102027;-64
2021/12/12 08:49:29;;;;;;;18.77;15.60;;;;;;;3.03;100.00;97382.00;5028412;28;102400;-64
2021/12/12 08:51:59;;;;;;;16.93;14.33;;;;;;;3.11;100.00;97387.19;5028214;28;102788;-64
2021/12/12 08:54:28;;;;;;;16.50;14.20;;;;;;;3.27;100.00;97387.03;5027510;28;101961;-64
2021/12/12 08:57:04;;;;;;;16.13;13.20;;;;;;;3.29;100.00;97380.56;5028736;27;102287;-64
2021/12/12 08:59:33;;;;;;;15.77;13.73;;;;;;;3.39;100.00;97393.44;5026845;28;104184;-64
2021/12/12 09:02:03;;;;;;;15.43;13.33;;;;;;;3.48;100.00;97392.34;5031123;28;102150;-64
2021/12/12 09:04:33;;;;;;;13.93;12.27;;;;;;;3.32;100.00;97388.09;5026910;28;104173;-64
2021/12/12 09:07:06;;;;;;;17.20;13.47;;;;;;;3.49;100.00;97384.28;5027253;28;101809;-64
2021/12/12 09:09:39;;;;;;;16.67;13.67;;;;;;;3.61;100.00;97382.03;5027477;28;105250;-64
2021/12/12 09:12:12;;;;;;;14.27;12.73;;;;;;;3.51;100.00;97386.72;5026754;28;105271;-64
2021/12/12 09:14:45;;;;;;;13.10;11.73;;;;;;;3.53;100.00;97384.72;5027164;28;101863;-64
2021/12/12 09:17:17;;;;;;;14.43;11.53;;;;;;;3.62;100.00;97392.38;5027418;28;105141;-65
2021/12/12 09:19:51;;;;;;;12.70;10.93;;;;;;;3.58;100.00;97390.25;5060733;27;105245;-64
2021/12/12 09:22:24;;;;;;;13.30;11.27;;;;;;;3.77;100.00;97390.50;5027201;28;101774;-65
2021/12/12 09:24:55;;;;;;;13.90;10.63;;;;;;;3.95;100.00;97387.50;5029970;28;105310;-64
2021/12/12 09:27:30;;;;;;;12.17;10.87;;;;;;;4.11;100.00;97384.63;5026844;28;101878;-64
2021/12/12 09:30:02;;;;;;;13.27;11.70;;;;;;;4.15;100.00;97389.34;5027018;28;105067;-64
2021/12/12 09:32:35;;;;;;;13.23;11.13;;;;;;;4.32;100.00;97392.56;5026798;28;105562;-65
2021/12/12 09:35:09;;;;;;;13.43;12.03;;;;;;;4.32;100.00;97390.72;5027046;28;101801;-65
2021/12/12 09:37:41;;;;;;;12.50;11.20;;;;;;;4.47;100.00;97391.50;5028295;28;103863;-65
2021/12/12 09:40:24;;;;;;;12.53;11.23;;;;;;;4.51;100.00;97376.13;5025855;28;104985;-65
2021/12/12 09:43:26;;;;;;;11.70;10.23;;;;;;;4.34;100.00;97380.03;5026880;28;101816;-65
2021/12/12 09:46:06;;;;;;;10.43;8.90;;;;;;;4.21;100.00;97380.69;5023004;28;105036;-64
2021/12/12 09:52:24;;;;;;;12.70;10.10;;;;;;;3.97;100.00;97377.59;5031593;28;105339;-64
2021/12/12 09:54:56;;;;;;;12.13;9.73;;;;;;;3.98;100.00;97381.88;5031314;28;102868;-64
2021/12/12 09:57:28;;;;;;;11.93;9.83;;;;;;;4.29;100.00;97379.75;5032503;27;102267;-64
2021/12/12 10:00:16;;;;;;;10.90;9.43;;;;;;;4.29;100.00;97372.69;5031205;28;105625;-64
2021/12/12 10:03:12;;;;;;;10.07;9.07;;;;;;;4.28;100.00;97375.50;5030512;28;105649;-64
2021/12/12 10:05:51;;;;;;;9.63;8.67;;;;;;;4.34;100.00;97370.31;5030818;28;101825;-64
2021/12/12 10:08:29;;;;;;;10.17;9.17;;;;;;;4.55;100.00;97364.22;5032460;28;102433;-64
2021/12/12 10:11:01;;;;;;;9.03;8.03;;;;;;;4.59;100.00;97352.31;5033496;28;105716;-64
2021/12/12 10:13:34;;;;;;;9.07;8.17;;;;;;;4.67;100.00;97354.81;5031051;28;105491;-64
2021/12/12 10:16:06;;;;;;;8.33;7.30;;;;;;;4.43;100.00;97353.38;5030495;28;105676;-64
2021/12/12 10:18:50;;;;;;;8.63;7.80;;;;;;;4.57;100.00;97359.56;5032627;28;101698;-64
2021/12/12 10:21:22;;;;;;;8.33;7.47;;;;;;;4.17;100.00;97362.84;5030695;28;104825;-64
2021/12/12 10:24:02;;;;;;;7.23;6.53;;;;;;;4.55;100.00;97372.13;5030228;28;105062;-64
2021/12/12 10:26:35;;;;;;;7.80;7.00;;;;;;;4.52;100.00;97364.59;5030456;28;101870;-64
2021/12/12 10:29:07;;;;;;;7.67;6.83;;;;;;;4.43;100.00;97366.53;5030936;28;104859;-64
2021/12/12 10:31:42;;;;;;;7.83;7.03;;;;;;;4.55;100.00;97364.22;5029804;28;105378;-64
2021/12/12 10:34:12;;;;;;;7.30;6.60;;;;;;;4.63;100.00;97358.84;5034197;28;101828;-64
2021/12/12 10:36:46;;;;;;;9.20;7.60;;;;;;;4.88;100.00;97344.22;5029994;28;105757;-64
2021/12/12 10:39:20;;;;;;;7.73;6.93;;;;;;;4.85;100.00;97342.00;5032214;28;101815;-64
2021/12/12 10:41:54;;;;;;;8.70;7.70;;;;;;;4.86;100.00;97335.72;5030379;28;105039;-64
2021/12/12 10:44:25;;;;;;;8.17;7.37;;;;;;;4.90;100.00;97342.22;5030008;28;105042;-64
2021/12/12 10:47:01;;;;;;;7.67;6.97;;;;;;;4.86;100.00;97338.34;5030432;28;101924;-64
2021/12/12 10:49:37;;;;;;;6.80;6.20;;;;;;;4.73;100.00;97333.78;5030591;28;104733;-64
2021/12/12 10:52:08;;;;;;;7.93;7.23;;;;;;;4.83;100.00;97334.28;5029680;28;105600;-64
2021/12/12 10:54:42;;;;;;;7.07;6.37;;;;;;;4.97;100.00;97330.72;5030481;28;101684;-64
2021/12/12 10:57:14;;;;;;;7.17;6.47;;;;;;;4.76;100.00;97330.75;5033222;28;105456;-64
2021/12/12 10:59:46;;;;;;;7.00;6.30;;;;;;;5.04;100.00;97323.69;5029923;28;101887;-64
2021/12/12 11:02:20;;;;;;;9.00;7.13;;;;;;;5.09;100.00;97317.81;5030243;28;105042;-64
2021/12/12 11:04:50;;;;;;;7.50;6.80;;;;;;;5.19;100.00;97321.72;5029657;28;105613;-62
2021/12/12 11:07:22;;;;;;;7.17;6.47;;;;;;;5.07;100.00;97325.13;5030065;28;101828;-63
2021/12/12 11:09:56;;;;;;;8.00;7.10;;;;;;;4.90;100.00;97319.31;5030276;28;104798;-62
2021/12/12 11:12:31;;;;;;;6.80;6.10;;;;;;;4.91;100.00;97320.16;5029593;28;105962;-62
2021/12/12 11:15:05;;;;;;;7.13;6.43;;;;;;;5.06;100.00;97312.91;5030169;28;101959;-62
2021/12/12 11:17:40;;;;;;;6.83;6.13;;;;;;;4.89;100.00;97308.97;5031717;28;102416;-63
2021/12/12 11:20:15;;;;;;;8.30;6.80;;;;;;;4.86;100.00;97307.53;5032764;28;104964;-63
2021/12/12 11:22:46;;;;;;;7.63;6.87;;;;;;;4.97;100.00;97309.63;5029893;28;105278;-63
2021/12/12 11:25:23;;;;;;;7.27;6.37;;;;;;;4.88;100.00;97312.59;5029434;28;106840;-63
2021/12/12 11:27:57;;;;;;;7.00;6.17;;;;;;;5.07;100.00;97311.94;5029371;28;102018;-64
2021/12/12 11:30:27;;;;;;;6.83;6.13;;;;;;;4.95;100.00;97301.09;5029776;28;105335;-64
2021/12/12 11:32:59;;;;;;;7.30;6.43;;;;;;;4.76;100.00;97307.03;5063377;27;105787;-63
2021/12/12 11:35:29;;;;;;;8.87;6.50;;;;;;;4.55;100.00;97301.00;5029890;28;101896;-64
2021/12/12 11:38:03;;;;;;;7.17;6.47;;;;;;;4.79;100.00;97290.03;5029421;28;105098;-64
2021/12/12 11:40:32;;;;;;;6.77;6.07;;;;;;;4.88;100.00;97288.88;5028811;28;105660;-63
2021/12/12 11:43:04;;;;;;;7.90;6.73;;;;;;;5.04;100.00;97293.84;5033105;28;101914;-64
2021/12/12 11:45:39;;;;;;;7.57;6.70;;;;;;;5.07;100.00;97285.56;5028918;28;105625;-64
2021/12/12 11:48:18;;;;;;;7.73;6.93;;;;;;;5.45;100.00;97295.50;5029771;28;101802;-63
2021/12/12 11:50:53;;;;;;;6.97;6.17;;;;;;;5.35;100.00;97286.34;5031053;27;102956;-63
2021/12/12 11:53:26;;;;;;;7.23;6.53;;;;;;;5.29;100.00;97295.03;5029946;27;102883;-63